createdAt,value
2018-02-04T00:00:57.314Z,1004.36
2018-02-04T00:01:57.332Z,1004.36
2018-02-04T00:02:57.341Z,1004.36
2018-02-04T00:03:57.357Z,1004.39
2018-02-04T00:04:57.368Z,1004.39
2018-02-04T00:05:57.385Z,1004.39
2018-02-04T00:07:57.413Z,1004.39
2018-02-04T00:08:57.417Z,1004.43
2018-02-04T00:09:57.427Z,1004.43
2018-02-04T00:10:57.441Z,1004.49
2018-02-04T00:11:57.457Z,1004.47
2018-02-04T00:12:57.474Z,1004.45
2018-02-04T00:13:57.482Z,1004.47
2018-02-04T00:14:57.501Z,1004.45
2018-02-04T00:15:57.508Z,1004.47
2018-02-04T00:16:57.519Z,1004.46
2018-02-04T00:17:57.537Z,1004.46
2018-02-04T00:18:57.545Z,1004.48
2018-02-04T00:19:57.555Z,1004.46
2018-02-04T00:20:57.574Z,1004.53
2018-02-04T00:21:57.584Z,1004.49
2018-02-04T00:23:57.606Z,1004.54
2018-02-04T00:24:57.628Z,1004.57
2018-02-04T00:25:57.638Z,1004.58
2018-02-04T00:26:57.651Z,1004.58
2018-02-04T00:27:57.660Z,1004.6
2018-02-04T00:28:57.670Z,1004.62
2018-02-04T00:29:57.688Z,1004.62
2018-02-04T00:30:57.698Z,1004.65
2018-02-04T00:31:57.712Z,1004.67
2018-02-04T00:32:57.729Z,1004.68
2018-02-04T00:33:57.738Z,1004.71
2018-02-04T00:34:57.755Z,1004.75
2018-02-04T00:35:57.767Z,1004.74
2018-02-04T00:36:57.780Z,1004.75
2018-02-04T00:37:57.846Z,1004.8
2018-02-04T00:39:57.814Z,1004.83
2018-02-04T00:40:57.826Z,1004.81
2018-02-04T00:41:57.839Z,1004.86
2018-02-04T00:42:57.849Z,1004.86
2018-02-04T00:43:57.865Z,1004.83
2018-02-04T00:44:57.878Z,1004.88
2018-02-04T00:45:57.891Z,1004.86
2018-02-04T00:46:57.902Z,1004.87
2018-02-04T00:47:57.913Z,1004.88
2018-02-04T00:48:57.931Z,1004.95
2018-02-04T00:49:57.940Z,1004.96
2018-02-04T00:50:57.953Z,1005
2018-02-04T00:51:57.962Z,1005.04
2018-02-04T00:52:57.978Z,1005.02
2018-02-04T00:54:58.005Z,1004.97
2018-02-04T00:55:58.017Z,1005
2018-02-04T00:56:58.035Z,1005.02
2018-02-04T00:57:58.047Z,1005.01
2018-02-04T00:58:58.057Z,1005.02
2018-02-04T00:59:58.074Z,1005.05
2018-02-04T01:00:58.079Z,1005.07
2018-02-04T01:01:58.097Z,1005.09
2018-02-04T01:02:58.104Z,1005.09
2018-02-04T01:03:58.116Z,1005.11
2018-02-04T01:04:58.131Z,1005.12
2018-02-04T01:05:58.144Z,1005.12
2018-02-04T01:06:58.157Z,1005.16
2018-02-04T01:07:58.176Z,1005.18
2018-02-04T01:08:58.187Z,1005.14
2018-02-04T01:09:58.191Z,1005.12
2018-02-04T01:10:58.203Z,1005.11
2018-02-04T01:11:58.222Z,1005.15
2018-02-04T01:12:58.235Z,1005.13
2018-02-04T01:13:58.247Z,1005.17
2018-02-04T01:14:58.258Z,1005.14
2018-02-04T01:15:58.275Z,1005.21
2018-02-04T01:16:58.284Z,1005.21
2018-02-04T01:17:58.302Z,1005.2
2018-02-04T01:18:58.307Z,1005.24
2018-02-04T01:19:58.318Z,1005.24
2018-02-04T01:20:58.331Z,1005.23
2018-02-04T01:21:58.343Z,1005.25
2018-02-04T01:22:58.365Z,1005.24
2018-02-04T01:23:58.378Z,1005.27
2018-02-04T01:24:58.380Z,1005.18
2018-02-04T01:26:58.407Z,1005.24
2018-02-04T01:27:58.423Z,1005.25
2018-02-04T01:28:58.442Z,1005.23
2018-02-04T01:29:58.449Z,1005.24
2018-02-04T01:30:58.463Z,1005.23
2018-02-04T01:31:58.471Z,1005.23
2018-02-04T01:32:58.490Z,1005.22
2018-02-04T01:33:58.495Z,1005.2
2018-02-04T01:34:58.510Z,1005.18
2018-02-04T01:35:58.528Z,1005.18
2018-02-04T01:36:58.537Z,1005.19
2018-02-04T01:37:58.548Z,1005.17
2018-02-04T01:38:58.561Z,1005.19
2018-02-04T01:39:58.571Z,1005.16
2018-02-04T01:40:58.593Z,1005.18
2018-02-04T01:42:58.620Z,1005.19
2018-02-04T01:43:58.632Z,1005.23
2018-02-04T01:44:58.634Z,1005.22
2018-02-04T01:45:58.652Z,1005.2
2018-02-04T01:46:58.659Z,1005.22
2018-02-04T01:47:58.682Z,1005.2
2018-02-04T01:48:58.688Z,1005.21
2018-02-04T01:49:58.698Z,1005.25
2018-02-04T01:50:58.709Z,1005.25
2018-02-04T01:51:58.724Z,1005.26
2018-02-04T01:52:58.737Z,1005.31
2018-02-04T01:53:58.748Z,1005.32
2018-02-04T01:54:58.760Z,1005.31
2018-02-04T01:55:58.772Z,1005.31
2018-02-04T01:56:58.796Z,1005.33
2018-02-04T01:58:58.816Z,1005.33
2018-02-04T01:59:58.825Z,1005.3
2018-02-04T02:00:58.844Z,1005.33
2018-02-04T02:01:58.853Z,1005.35
2018-02-04T02:02:58.864Z,1005.36
2018-02-04T02:03:58.885Z,1005.37
2018-02-04T02:04:58.886Z,1005.38
2018-02-04T02:05:58.904Z,1005.39
2018-02-04T02:06:58.916Z,1005.39
2018-02-04T02:07:58.931Z,1005.37
2018-02-04T02:08:58.939Z,1005.38
2018-02-04T02:09:58.958Z,1005.38
2018-02-04T02:10:58.961Z,1005.43
2018-02-04T02:11:58.983Z,1005.44
2018-02-04T02:12:58.989Z,1005.41
2018-02-04T02:14:59.018Z,1005.43
2018-02-04T02:15:59.023Z,1005.38
2018-02-04T02:16:59.042Z,1005.39
2018-02-04T02:17:59.055Z,1005.41
2018-02-04T02:18:59.067Z,1005.43
2018-02-04T02:19:59.088Z,1005.43
2018-02-04T02:20:59.094Z,1005.44
2018-02-04T02:21:59.100Z,1005.45
2018-02-04T02:22:59.114Z,1005.47
2018-02-04T02:23:59.128Z,1005.51
2018-02-04T02:24:59.137Z,1005.52
2018-02-04T02:25:59.149Z,1005.55
2018-02-04T02:26:59.164Z,1005.59
2018-02-04T02:27:59.178Z,1005.59
2018-02-04T02:29:59.205Z,1005.64
2018-02-04T02:30:59.218Z,1005.65
2018-02-04T02:31:59.231Z,1005.69
2018-02-04T02:32:59.241Z,1005.71
2018-02-04T02:33:59.252Z,1005.67
2018-02-04T02:34:59.264Z,1005.71
2018-02-04T02:35:59.278Z,1005.69
2018-02-04T02:36:59.290Z,1005.72
2018-02-04T02:37:59.304Z,1005.73
2018-02-04T02:38:59.316Z,1005.75
2018-02-04T02:39:59.332Z,1005.73
2018-02-04T02:40:59.342Z,1005.76
2018-02-04T02:41:59.352Z,1005.77
2018-02-04T02:42:59.366Z,1005.77
2018-02-04T02:43:59.379Z,1005.82
2018-02-04T02:44:59.392Z,1005.83
2018-02-04T02:45:59.405Z,1005.83
2018-02-04T02:46:59.412Z,1005.85
2018-02-04T02:47:59.439Z,1005.85
2018-02-04T02:48:59.440Z,1005.84
2018-02-04T02:49:59.451Z,1005.86
2018-02-04T02:50:59.464Z,1005.86
2018-02-04T02:51:59.478Z,1005.9
2018-02-04T02:52:59.489Z,1005.92
2018-02-04T02:53:59.502Z,1005.93
2018-02-04T02:54:59.513Z,1005.9
2018-02-04T02:55:59.524Z,1005.93
2018-02-04T02:56:59.544Z,1005.95
2018-02-04T02:57:59.549Z,1005.96
2018-02-04T02:58:59.562Z,1005.94
2018-02-04T02:59:59.573Z,1005.95
2018-02-04T03:01:59.603Z,1005.99
2018-02-04T03:02:59.610Z,1006.03
2018-02-04T03:03:59.628Z,1006.02
2018-02-04T03:04:59.641Z,1006.05
2018-02-04T03:05:59.652Z,1006.09
2018-02-04T03:06:59.663Z,1006.04
2018-02-04T03:07:59.675Z,1006.08
2018-02-04T03:08:59.685Z,1006.09
2018-02-04T03:09:59.699Z,1006.11
2018-02-04T03:10:59.715Z,1006.12
2018-02-04T03:11:59.730Z,1006.13
2018-02-04T03:12:59.734Z,1006.18
2018-02-04T03:13:59.753Z,1006.17
2018-02-04T03:14:59.760Z,1006.17
2018-02-04T03:15:59.769Z,1006.22
2018-02-04T03:17:59.795Z,1006.23
2018-02-04T03:18:59.811Z,1006.26
2018-02-04T03:19:59.826Z,1006.28
2018-02-04T03:20:59.834Z,1006.28
2018-02-04T03:21:59.853Z,1006.28
2018-02-04T03:22:59.858Z,1006.28
2018-02-04T03:23:59.873Z,1006.28
2018-02-04T03:24:59.884Z,1006.34
2018-02-04T03:25:59.898Z,1006.3
2018-02-04T03:26:59.913Z,1006.27
2018-02-04T03:27:59.928Z,1006.36
2018-02-04T03:28:59.943Z,1006.39
2018-02-04T03:29:59.954Z,1006.41
2018-02-04T03:30:59.963Z,1006.42
2018-02-04T03:31:59.977Z,1006.47
2018-02-04T03:34:00.005Z,1006.44
2018-02-04T03:35:00.012Z,1006.47
2018-02-04T03:36:00.026Z,1006.44
2018-02-04T03:37:00.032Z,1006.4
2018-02-04T03:38:00.049Z,1006.4
2018-02-04T03:39:00.063Z,1006.38
2018-02-04T03:40:00.070Z,1006.39
2018-02-04T03:41:00.085Z,1006.43
2018-02-04T03:42:00.093Z,1006.48
2018-02-04T03:43:00.110Z,1006.51
2018-02-04T03:44:00.126Z,1006.55
2018-02-04T03:45:00.139Z,1006.58
2018-02-04T03:46:00.143Z,1006.63
2018-02-04T03:47:00.155Z,1006.57
2018-02-04T03:48:00.164Z,1006.58
2018-02-04T03:50:00.201Z,1006.62
2018-02-04T03:51:00.211Z,1006.65
2018-02-04T03:52:00.224Z,1006.64
2018-02-04T03:53:00.230Z,1006.61
2018-02-04T03:54:00.244Z,1006.62
2018-02-04T03:55:00.253Z,1006.58
2018-02-04T03:56:00.264Z,1006.62
2018-02-04T03:57:00.280Z,1006.66
2018-02-04T03:58:00.291Z,1006.68
2018-02-04T03:59:00.304Z,1006.68
2018-02-04T04:00:00.317Z,1006.76
2018-02-04T04:01:00.332Z,1006.75
2018-02-04T04:02:00.344Z,1006.79
2018-02-04T04:03:00.351Z,1006.8
2018-02-04T04:05:00.377Z,1006.91
2018-02-04T04:06:00.386Z,1006.88
2018-02-04T04:07:00.399Z,1006.92
2018-02-04T04:08:00.410Z,1006.95
2018-02-04T04:09:00.429Z,1006.94
2018-02-04T04:10:00.435Z,1006.98
2018-02-04T04:11:00.450Z,1006.97
2018-02-04T04:12:00.457Z,1007
2018-02-04T04:13:00.474Z,1007.01
2018-02-04T04:14:00.483Z,1007.05
2018-02-04T04:15:00.502Z,1007.06
2018-02-04T04:16:00.512Z,1007.05
2018-02-04T04:17:00.528Z,1007.06
2018-02-04T04:18:00.540Z,1007.07
2018-02-04T04:19:00.547Z,1007.07
2018-02-04T04:20:00.559Z,1007.1
2018-02-04T04:21:00.574Z,1007.13
2018-02-04T04:22:00.585Z,1007.15
2018-02-04T04:23:00.595Z,1007.14
2018-02-04T04:24:00.604Z,1007.15
2018-02-04T04:25:00.621Z,1007.14
2018-02-04T04:26:00.628Z,1007.18
2018-02-04T04:27:00.651Z,1007.22
2018-02-04T04:28:00.652Z,1007.26
2018-02-04T04:29:00.665Z,1007.28
2018-02-04T04:30:00.675Z,1007.28
2018-02-04T04:31:00.689Z,1007.28
2018-02-04T04:32:00.710Z,1007.32
2018-02-04T04:33:00.715Z,1007.26
2018-02-04T04:34:00.727Z,1007.31
2018-02-04T04:35:00.735Z,1007.32
2018-02-04T04:37:00.763Z,1007.3
2018-02-04T04:38:00.779Z,1007.31
2018-02-04T04:39:00.787Z,1007.37
2018-02-04T04:40:00.803Z,1007.35
2018-02-04T04:41:00.815Z,1007.38
2018-02-04T04:42:00.819Z,1007.39
2018-02-04T04:43:00.834Z,1007.44
2018-02-04T04:44:00.841Z,1007.47
2018-02-04T04:45:00.856Z,1007.47
2018-02-04T04:46:00.870Z,1007.53
2018-02-04T04:47:00.885Z,1007.5
2018-02-04T04:48:00.896Z,1007.52
2018-02-04T04:49:00.900Z,1007.54
2018-02-04T04:50:00.912Z,1007.61
2018-02-04T04:51:00.927Z,1007.65
2018-02-04T04:53:00.956Z,1007.67
2018-02-04T04:54:00.964Z,1007.69
2018-02-04T04:55:00.972Z,1007.67
2018-02-04T04:56:00.984Z,1007.7
2018-02-04T04:57:00.999Z,1007.75
2018-02-04T04:58:01.009Z,1007.74
2018-02-04T04:59:01.020Z,1007.73
2018-02-04T05:00:01.029Z,1007.73
2018-02-04T05:01:01.042Z,1007.79
2018-02-04T05:02:01.056Z,1007.78
2018-02-04T05:03:01.071Z,1007.83
2018-02-04T05:04:01.084Z,1007.84
2018-02-04T05:05:01.097Z,1007.87
2018-02-04T05:06:01.101Z,1007.88
2018-02-04T05:07:01.113Z,1007.91
2018-02-04T05:09:01.140Z,1007.91
2018-02-04T05:10:01.156Z,1007.95
2018-02-04T05:11:01.162Z,1007.93
2018-02-04T05:12:01.177Z,1007.91
2018-02-04T05:13:01.185Z,1007.9
2018-02-04T05:14:01.203Z,1007.92
2018-02-04T05:15:01.210Z,1007.92
2018-02-04T05:16:01.221Z,1007.92
2018-02-04T05:17:01.236Z,1007.96
2018-02-04T05:18:01.245Z,1007.93
2018-02-04T05:19:01.255Z,1007.97
2018-02-04T05:20:01.267Z,1008
2018-02-04T05:21:01.278Z,1007.98
2018-02-04T05:22:01.294Z,1007.96
2018-02-04T05:23:01.305Z,1008.03
2018-02-04T05:25:01.323Z,1008.1
2018-02-04T05:26:01.337Z,1008.07
2018-02-04T05:27:01.348Z,1008.1
2018-02-04T05:28:01.364Z,1008.1
2018-02-04T05:29:01.374Z,1008.08
2018-02-04T05:30:01.383Z,1008.14
2018-02-04T05:31:01.397Z,1008.09
2018-02-04T05:32:01.406Z,1008.18
2018-02-04T05:33:01.417Z,1008.16
2018-02-04T05:34:01.434Z,1008.12
2018-02-04T05:35:01.446Z,1008.15
2018-02-04T05:36:01.460Z,1008.17
2018-02-04T05:37:01.469Z,1008.12
2018-02-04T05:38:01.484Z,1008.19
2018-02-04T05:40:01.523Z,1008.2
2018-02-04T05:41:01.513Z,1008.26
2018-02-04T05:42:01.542Z,1008.25
2018-02-04T05:43:01.538Z,1008.29
2018-02-04T05:44:01.548Z,1008.25
2018-02-04T05:45:01.560Z,1008.28
2018-02-04T05:46:01.570Z,1008.28
2018-02-04T05:47:01.588Z,1008.35
2018-02-04T05:48:01.597Z,1008.37
2018-02-04T05:49:01.609Z,1008.4
2018-02-04T05:50:01.619Z,1008.39
2018-02-04T05:51:01.631Z,1008.43
2018-02-04T05:52:01.646Z,1008.46
2018-02-04T05:53:01.654Z,1008.49
2018-02-04T05:54:01.667Z,1008.49
2018-02-04T05:55:01.678Z,1008.52
2018-02-04T05:56:01.688Z,1008.55
2018-02-04T05:57:01.697Z,1008.54
2018-02-04T05:58:01.719Z,1008.58
2018-02-04T05:59:01.720Z,1008.64
2018-02-04T06:00:01.734Z,1008.69
2018-02-04T06:01:01.749Z,1008.66
2018-02-04T06:02:01.860Z,1008.69
2018-02-04T06:03:01.772Z,1008.72
2018-02-04T06:04:01.785Z,1008.72
2018-02-04T06:05:01.793Z,1008.75
2018-02-04T06:06:01.806Z,1008.77
2018-02-04T06:07:01.814Z,1008.8
2018-02-04T06:08:01.827Z,1008.84
2018-02-04T06:09:01.845Z,1008.86
2018-02-04T06:10:01.852Z,1008.87
2018-02-04T06:12:01.875Z,1008.9
2018-02-04T06:13:01.893Z,1008.94
2018-02-04T06:14:01.918Z,1008.97
2018-02-04T06:15:01.910Z,1008.95
2018-02-04T06:16:01.922Z,1009
2018-02-04T06:17:01.936Z,1008.97
2018-02-04T06:18:01.948Z,1008.98
2018-02-04T06:19:01.961Z,1009.04
2018-02-04T06:20:01.969Z,1009.04
2018-02-04T06:21:01.979Z,1009.05
2018-02-04T06:22:01.991Z,1009.08
2018-02-04T06:23:02.005Z,1009.11
2018-02-04T06:24:02.015Z,1009.12
2018-02-04T06:25:02.030Z,1009.14
2018-02-04T06:26:02.141Z,1009.12
2018-02-04T06:28:02.059Z,1009.17
2018-02-04T06:29:02.074Z,1009.21
2018-02-04T06:30:02.088Z,1009.24
2018-02-04T06:31:02.096Z,1009.29
2018-02-04T06:32:02.111Z,1009.3
2018-02-04T06:33:02.125Z,1009.34
2018-02-04T06:34:02.129Z,1009.36
2018-02-04T06:35:02.142Z,1009.37
2018-02-04T06:36:02.153Z,1009.45
2018-02-04T06:37:02.161Z,1009.42
2018-02-04T06:38:02.179Z,1009.48
2018-02-04T06:39:02.190Z,1009.52
2018-02-04T06:40:02.199Z,1009.55
2018-02-04T06:41:02.211Z,1009.61
2018-02-04T06:42:02.227Z,1009.67
2018-02-04T06:44:02.249Z,1009.7
2018-02-04T06:45:02.256Z,1009.79
2018-02-04T06:46:02.266Z,1009.76
2018-02-04T06:47:02.284Z,1009.81
2018-02-04T06:48:02.300Z,1009.84
2018-02-04T06:49:02.308Z,1009.87
2018-02-04T06:50:02.323Z,1009.92
2018-02-04T06:51:02.325Z,1009.92
2018-02-04T06:52:02.336Z,1009.94
2018-02-04T06:53:02.351Z,1009.95
2018-02-04T06:54:02.364Z,1009.99
2018-02-04T06:55:02.373Z,1010.02
2018-02-04T06:56:02.387Z,1009.98
2018-02-04T06:57:02.401Z,1010.01
2018-02-04T06:58:02.413Z,1010.06
2018-02-04T07:00:02.481Z,1010.06
2018-02-04T07:01:02.447Z,1010.09
2018-02-04T07:02:02.453Z,1010.11
2018-02-04T07:03:02.472Z,1010.09
2018-02-04T07:04:02.478Z,1010.09
2018-02-04T07:05:02.486Z,1010.17
2018-02-04T07:06:02.498Z,1010.14
2018-02-04T07:07:02.511Z,1010.21
2018-02-04T07:08:02.526Z,1010.22
2018-02-04T07:09:02.536Z,1010.26
2018-02-04T07:10:02.552Z,1010.23
2018-02-04T07:11:02.560Z,1010.28
2018-02-04T07:12:02.572Z,1010.28
2018-02-04T07:13:02.579Z,1010.34
2018-02-04T07:15:02.612Z,1010.35
2018-02-04T07:16:02.618Z,1010.43
2018-02-04T07:17:02.735Z,1010.39
2018-02-04T07:18:02.648Z,1010.41
2018-02-04T07:19:02.653Z,1010.45
2018-02-04T07:20:02.666Z,1010.49
2018-02-04T07:21:02.679Z,1010.5
2018-02-04T07:22:02.685Z,1010.47
2018-02-04T07:23:02.704Z,1010.48
2018-02-04T07:24:02.711Z,1010.49
2018-02-04T07:25:02.725Z,1010.48
2018-02-04T07:26:02.734Z,1010.53
2018-02-04T07:27:02.747Z,1010.52
2018-02-04T07:28:02.762Z,1010.58
2018-02-04T07:29:02.766Z,1010.56
2018-02-04T07:30:02.783Z,1010.57
2018-02-04T07:31:02.798Z,1010.58
2018-02-04T07:32:02.807Z,1010.6
2018-02-04T07:33:02.822Z,1010.63
2018-02-04T07:34:02.830Z,1010.69
2018-02-04T07:35:02.840Z,1010.66
2018-02-04T07:36:02.851Z,1010.62
2018-02-04T07:37:02.863Z,1010.66
2018-02-04T07:38:02.873Z,1010.68
2018-02-04T07:39:02.893Z,1010.67
2018-02-04T07:40:02.895Z,1010.71
2018-02-04T07:41:02.913Z,1010.72
2018-02-04T07:42:02.928Z,1010.78
2018-02-04T07:43:02.933Z,1010.82
2018-02-04T07:44:02.945Z,1010.82
2018-02-04T07:45:02.964Z,1010.82
2018-02-04T07:47:02.985Z,1010.85
2018-02-04T07:48:02.995Z,1010.87
2018-02-04T07:49:03.004Z,1010.87
2018-02-04T07:50:03.030Z,1010.87
2018-02-04T07:51:03.039Z,1010.87
2018-02-04T07:52:03.050Z,1010.92
2018-02-04T07:53:03.064Z,1010.94
2018-02-04T07:54:03.116Z,1010.92
2018-02-04T07:55:03.084Z,1010.95
2018-02-04T07:56:03.095Z,1010.98
2018-02-04T07:57:03.109Z,1010.98
2018-02-04T07:58:03.125Z,1010.96
2018-02-04T07:59:03.140Z,1011.03
2018-02-04T08:00:03.158Z,1011.05
2018-02-04T08:01:03.160Z,1011.04
2018-02-04T08:03:03.186Z,1011.11
2018-02-04T08:04:03.209Z,1011.11
2018-02-04T08:05:03.220Z,1011.13
2018-02-04T08:06:03.284Z,1011.14
2018-02-04T08:07:03.247Z,1011.15
2018-02-04T08:08:03.257Z,1011.16
2018-02-04T08:09:03.269Z,1011.19
2018-02-04T08:10:03.286Z,1011.21
2018-02-04T08:11:03.297Z,1011.17
2018-02-04T08:12:03.313Z,1011.2
2018-02-04T08:13:03.328Z,1011.23
2018-02-04T08:14:03.343Z,1011.21
2018-02-04T08:15:03.352Z,1011.19
2018-02-04T08:16:03.366Z,1011.21
2018-02-04T08:17:03.377Z,1011.27
2018-02-04T08:19:03.406Z,1011.31
2018-02-04T08:20:03.418Z,1011.33
2018-02-04T08:21:03.432Z,1011.35
2018-02-04T08:22:03.449Z,1011.42
2018-02-04T08:23:03.457Z,1011.37
2018-02-04T08:24:03.479Z,1011.38
2018-02-04T08:25:03.492Z,1011.43
2018-02-04T08:26:03.503Z,1011.46
2018-02-04T08:27:03.517Z,1011.44
2018-02-04T08:28:03.529Z,1011.48
2018-02-04T08:29:03.543Z,1011.49
2018-02-04T08:30:03.559Z,1011.48
2018-02-04T08:31:03.574Z,1011.49
2018-02-04T08:32:03.590Z,1011.49
2018-02-04T08:33:03.597Z,1011.51
2018-02-04T08:35:03.626Z,1011.51
2018-02-04T08:36:03.639Z,1011.52
2018-02-04T08:37:03.649Z,1011.53
2018-02-04T08:38:03.668Z,1011.54
2018-02-04T08:39:03.680Z,1011.59
2018-02-04T08:40:03.699Z,1011.59
2018-02-04T08:41:03.710Z,1011.57
2018-02-04T08:42:03.721Z,1011.59
2018-02-04T08:43:03.740Z,1011.58
2018-02-04T08:44:03.747Z,1011.57
2018-02-04T08:45:03.765Z,1011.63
2018-02-04T08:46:03.775Z,1011.64
2018-02-04T08:47:03.790Z,1011.64
2018-02-04T08:48:03.806Z,1011.66
2018-02-04T08:50:03.841Z,1011.7
2018-02-04T08:51:03.850Z,1011.69
2018-02-04T08:52:03.866Z,1011.67
2018-02-04T08:53:03.877Z,1011.67
2018-02-04T08:54:03.886Z,1011.72
2018-02-04T08:55:03.907Z,1011.76
2018-02-04T08:56:03.914Z,1011.78
2018-02-04T08:57:03.932Z,1011.8
2018-02-04T08:58:03.946Z,1011.81
2018-02-04T08:59:03.963Z,1011.88
2018-02-04T09:00:03.983Z,1011.85
2018-02-04T09:01:03.992Z,1011.86
2018-02-04T09:02:04.006Z,1011.93
2018-02-04T09:03:04.021Z,1011.92
2018-02-04T09:04:04.030Z,1011.96
2018-02-04T09:05:04.045Z,1011.97
2018-02-04T09:06:04.122Z,1011.98
2018-02-04T09:07:04.080Z,1012.02
2018-02-04T09:08:04.091Z,1011.98
2018-02-04T09:09:04.104Z,1011.99
2018-02-04T09:10:04.117Z,1011.98
2018-02-04T09:11:04.131Z,1012
2018-02-04T09:12:04.142Z,1012
2018-02-04T09:13:04.159Z,1012
2018-02-04T09:14:04.173Z,1012.05
2018-02-04T09:15:04.190Z,1012.05
2018-02-04T09:16:04.204Z,1012.07
2018-02-04T09:17:04.222Z,1012.13
2018-02-04T09:18:04.236Z,1012.15
2018-02-04T09:19:04.248Z,1012.15
2018-02-04T09:20:04.260Z,1012.15
2018-02-04T09:22:04.289Z,1012.15
2018-02-04T09:23:04.308Z,1012.17
2018-02-04T09:24:04.316Z,1012.18
2018-02-04T09:25:04.331Z,1012.17
2018-02-04T09:26:04.342Z,1012.2
2018-02-04T09:27:04.361Z,1012.21
2018-02-04T09:28:04.374Z,1012.19
2018-02-04T09:29:04.394Z,1012.22
2018-02-04T09:30:04.409Z,1012.22
2018-02-04T09:31:04.420Z,1012.24
2018-02-04T09:32:04.429Z,1012.26
2018-02-04T09:33:04.442Z,1012.25
2018-02-04T09:34:04.456Z,1012.24
2018-02-04T09:35:04.470Z,1012.28
2018-02-04T09:36:04.490Z,1012.28
2018-02-04T09:38:04.515Z,1012.32
2018-02-04T09:39:04.529Z,1012.29
2018-02-04T09:40:04.543Z,1012.33
2018-02-04T09:41:04.556Z,1012.36
2018-02-04T09:42:04.575Z,1012.38
2018-02-04T09:43:04.590Z,1012.4
2018-02-04T09:44:04.605Z,1012.39
2018-02-04T09:45:04.619Z,1012.38
2018-02-04T09:46:04.632Z,1012.38
2018-02-04T09:47:04.643Z,1012.43
2018-02-04T09:48:04.660Z,1012.45
2018-02-04T09:49:04.678Z,1012.45
2018-02-04T09:50:04.690Z,1012.42
2018-02-04T09:51:04.705Z,1012.48
2018-02-04T09:52:04.717Z,1012.47
2018-02-04T09:54:04.748Z,1012.51
2018-02-04T09:55:04.764Z,1012.53
2018-02-04T09:56:04.778Z,1012.52
2018-02-04T09:57:04.786Z,1012.55
2018-02-04T09:58:04.803Z,1012.57
2018-02-04T09:59:04.818Z,1012.57
2018-02-04T10:00:04.836Z,1012.56
2018-02-04T10:01:04.847Z,1012.53
2018-02-04T10:02:04.862Z,1012.6
2018-02-04T10:03:04.874Z,1012.62
2018-02-04T10:04:04.886Z,1012.61
2018-02-04T10:05:04.902Z,1012.66
2018-02-04T10:06:04.915Z,1012.65
2018-02-04T10:07:04.936Z,1012.63
2018-02-04T10:08:04.953Z,1012.64
2018-02-04T10:10:04.979Z,1012.64
2018-02-04T10:11:04.994Z,1012.65
2018-02-04T10:12:05.002Z,1012.65
2018-02-04T10:13:05.021Z,1012.65
2018-02-04T10:14:05.040Z,1012.64
2018-02-04T10:15:05.046Z,1012.66
2018-02-04T10:16:05.066Z,1012.7
2018-02-04T10:17:05.079Z,1012.71
2018-02-04T10:18:05.097Z,1012.75
2018-02-04T10:19:05.109Z,1012.81
2018-02-04T10:20:05.122Z,1012.8
2018-02-04T10:21:05.140Z,1012.81
2018-02-04T10:22:05.154Z,1012.82
2018-02-04T10:23:05.171Z,1012.83
2018-02-04T10:25:05.199Z,1012.88
2018-02-04T10:26:05.216Z,1012.86
2018-02-04T10:27:05.230Z,1012.89
2018-02-04T10:28:05.245Z,1012.92
2018-02-04T10:29:05.256Z,1012.9
2018-02-04T10:30:05.273Z,1012.95
2018-02-04T10:31:05.281Z,1012.95
2018-02-04T10:32:05.301Z,1012.94
2018-02-04T10:33:05.313Z,1012.94
2018-02-04T10:34:05.327Z,1012.93
2018-02-04T10:35:05.344Z,1012.91
2018-02-04T10:36:05.353Z,1012.99
2018-02-04T10:37:05.372Z,1013.01
2018-02-04T10:38:05.391Z,1013.01
2018-02-04T10:39:05.406Z,1013.02
2018-02-04T10:40:05.417Z,1013.03
2018-02-04T10:41:05.429Z,1013.06
2018-02-04T10:42:05.450Z,1013.03
2018-02-04T10:43:05.460Z,1013.01
2018-02-04T10:44:05.473Z,1013.05
2018-02-04T10:45:05.489Z,1013.09
2018-02-04T10:46:05.500Z,1013.04
2018-02-04T10:47:05.513Z,1013.14
2018-02-04T10:48:05.527Z,1013.11
2018-02-04T10:49:05.542Z,1013.1
2018-02-04T10:50:05.558Z,1013.12
2018-02-04T10:51:05.572Z,1013.17
2018-02-04T10:52:05.587Z,1013.14
2018-02-04T10:53:05.603Z,1013.13
2018-02-04T10:54:05.618Z,1013.13
2018-02-04T10:55:05.627Z,1013.13
2018-02-04T10:57:05.658Z,1013.09
2018-02-04T10:58:05.680Z,1013.07
2018-02-04T10:59:05.688Z,1013.08
2018-02-04T11:00:05.704Z,1013.07
2018-02-04T11:01:05.717Z,1013.15
2018-02-04T11:02:05.727Z,1013.14
2018-02-04T11:03:05.739Z,1013.13
2018-02-04T11:04:05.754Z,1013.16
2018-02-04T11:05:05.777Z,1013.16
2018-02-04T11:06:05.831Z,1013.19
2018-02-04T11:07:05.800Z,1013.23
2018-02-04T11:08:05.816Z,1013.22
2018-02-04T11:09:05.828Z,1013.22
2018-02-04T11:10:05.850Z,1013.2
2018-02-04T11:11:05.860Z,1013.21
2018-02-04T11:13:05.889Z,1013.22
2018-02-04T11:14:05.898Z,1013.27
2018-02-04T11:15:05.921Z,1013.29
2018-02-04T11:16:05.932Z,1013.26
2018-02-04T11:17:05.948Z,1013.27
2018-02-04T11:18:05.964Z,1013.32
2018-02-04T11:19:05.973Z,1013.3
2018-02-04T11:20:05.984Z,1013.35
2018-02-04T11:21:06.004Z,1013.33
2018-02-04T11:22:06.017Z,1013.31
2018-02-04T11:23:06.032Z,1013.28
2018-02-04T11:24:06.048Z,1013.28
2018-02-04T11:25:06.057Z,1013.3
2018-02-04T11:26:06.073Z,1013.3
2018-02-04T11:27:06.093Z,1013.34
2018-02-04T11:29:06.114Z,1013.35
2018-02-04T11:30:06.136Z,1013.35
2018-02-04T11:31:06.150Z,1013.32
2018-02-04T11:32:06.157Z,1013.34
2018-02-04T11:33:06.175Z,1013.31
2018-02-04T11:34:06.187Z,1013.36
2018-02-04T11:35:06.209Z,1013.31
2018-02-04T11:36:06.219Z,1013.29
2018-02-04T11:37:06.233Z,1013.31
2018-02-04T11:38:06.249Z,1013.32
2018-02-04T11:39:06.264Z,1013.28
2018-02-04T11:40:06.282Z,1013.26
2018-02-04T11:41:06.314Z,1013.31
2018-02-04T11:42:06.301Z,1013.32
2018-02-04T11:43:06.322Z,1013.32
2018-02-04T11:45:06.350Z,1013.38
2018-02-04T11:46:06.369Z,1013.32
2018-02-04T11:47:06.377Z,1013.43
2018-02-04T11:48:06.394Z,1013.41
2018-02-04T11:49:06.406Z,1013.44
2018-02-04T11:50:06.419Z,1013.48
2018-02-04T11:51:06.442Z,1013.49
2018-02-04T11:52:06.446Z,1013.49
2018-02-04T11:53:06.469Z,1013.46
2018-02-04T11:54:06.480Z,1013.49
2018-02-04T11:55:06.492Z,1013.5
2018-02-04T11:56:06.512Z,1013.5
2018-02-04T11:57:06.524Z,1013.49
2018-02-04T11:58:06.537Z,1013.52
2018-02-04T12:00:06.575Z,1013.55
2018-02-04T12:01:06.581Z,1013.57
2018-02-04T12:02:06.600Z,1013.56
2018-02-04T12:03:06.619Z,1013.53
2018-02-04T12:04:06.635Z,1013.54
2018-02-04T12:05:06.648Z,1013.49
2018-02-04T12:06:06.762Z,1013.53
2018-02-04T12:07:06.681Z,1013.52
2018-02-04T12:08:06.689Z,1013.53
2018-02-04T12:09:06.709Z,1013.51
2018-02-04T12:10:06.727Z,1013.53
2018-02-04T12:11:06.738Z,1013.51
2018-02-04T12:12:06.760Z,1013.51
2018-02-04T12:13:06.815Z,1013.55
2018-02-04T12:14:06.795Z,1013.52
2018-02-04T12:15:06.811Z,1013.55
2018-02-04T12:16:06.825Z,1013.53
2018-02-04T12:17:06.834Z,1013.55
2018-02-04T12:18:06.853Z,1013.57
2018-02-04T12:19:06.867Z,1013.6
2018-02-04T12:20:06.885Z,1013.57
2018-02-04T12:21:06.900Z,1013.62
2018-02-04T12:22:06.915Z,1013.62
2018-02-04T12:23:06.932Z,1013.64
2018-02-04T12:24:06.952Z,1013.63
2018-02-04T12:25:06.966Z,1013.65
2018-02-04T12:26:06.989Z,1013.7
2018-02-04T12:27:06.993Z,1013.72
2018-02-04T12:28:07.010Z,1013.72
2018-02-04T12:29:07.029Z,1013.7
2018-02-04T12:30:07.044Z,1013.68
2018-02-04T12:32:07.069Z,1013.68
2018-02-04T12:33:07.094Z,1013.7
2018-02-04T12:34:07.108Z,1013.75
2018-02-04T12:35:07.119Z,1013.76
2018-02-04T12:36:07.135Z,1013.78
2018-02-04T12:37:07.151Z,1013.79
2018-02-04T12:38:07.168Z,1013.83
2018-02-04T12:39:07.186Z,1013.82
2018-02-04T12:40:07.207Z,1013.8
2018-02-04T12:41:07.215Z,1013.82
2018-02-04T12:42:07.228Z,1013.81
2018-02-04T12:43:07.254Z,1013.78
2018-02-04T12:44:07.265Z,1013.86
2018-02-04T12:45:07.287Z,1013.83
2018-02-04T12:46:07.295Z,1013.87
2018-02-04T12:48:07.325Z,1013.92
2018-02-04T12:49:07.341Z,1013.89
2018-02-04T12:50:07.360Z,1013.92